createdAt,value
2018-09-10T00:00:34.736Z,5.53
2018-09-10T00:05:39.067Z,4.93
2018-09-10T00:10:43.192Z,6.20
2018-09-10T00:15:46.999Z,5.80
2018-09-10T00:20:51.533Z,5.50
2018-09-10T00:25:55.663Z,5.27
2018-09-10T00:30:59.964Z,5.43
2018-09-10T00:36:04.557Z,5.70
2018-09-10T00:41:09.255Z,5.10
2018-09-10T00:46:17.073Z,5.00
2018-09-10T00:51:21.047Z,5.23
2018-09-10T00:56:24.868Z,5.23
2018-09-10T01:01:29.201Z,5.37
2018-09-10T01:06:33.438Z,5.80
2018-09-10T01:11:37.431Z,5.33
2018-09-10T01:16:41.495Z,5.73
2018-09-10T01:21:45.141Z,5.30
2018-09-10T01:26:49.482Z,5.47
2018-09-10T01:31:53.755Z,5.60
2018-09-10T01:36:57.781Z,5.30
2018-09-10T01:42:01.735Z,5.20
2018-09-10T01:47:05.755Z,5.50
2018-09-10T01:52:09.845Z,4.63
2018-09-10T01:57:14.280Z,5.23
2018-09-10T02:02:18.012Z,5.13
2018-09-10T02:07:21.710Z,5.00
2018-09-10T02:12:26.333Z,4.90
2018-09-10T02:17:30.186Z,5.17
2018-09-10T02:22:34.246Z,5.17
2018-09-10T02:27:38.056Z,5.53
2018-09-10T02:32:46.662Z,5.40
2018-09-10T02:37:50.359Z,5.13
2018-09-10T02:42:54.378Z,5.47
2018-09-10T02:47:58.646Z,5.40
2018-09-10T02:53:02.380Z,4.97
2018-09-10T02:58:06.115Z,5.40
2018-09-10T03:03:10.913Z,5.50
2018-09-10T03:08:17.710Z,5.00
2018-09-10T03:13:22.304Z,5.33
2018-09-10T03:18:26.063Z,5.00
2018-09-10T03:23:29.739Z,5.60
2018-09-10T03:28:33.601Z,5.50
2018-09-10T03:33:37.699Z,5.60
2018-09-10T03:38:41.247Z,6.00
2018-09-10T03:43:44.808Z,5.10
2018-09-10T03:48:48.566Z,5.63
2018-09-10T03:53:52.323Z,4.87
2018-09-10T03:58:56.744Z,5.37
2018-09-10T04:04:00.579Z,5.87
2018-09-10T04:09:06.257Z,5.97
2018-09-10T04:14:09.957Z,5.90
2018-09-10T04:19:13.849Z,6.20
2018-09-10T04:24:18.333Z,6.63
2018-09-10T04:29:22.044Z,5.67
2018-09-10T04:34:30.025Z,5.97
2018-09-10T04:39:34.835Z,6.13
2018-09-10T04:44:38.707Z,6.00
2018-09-10T04:49:42.827Z,5.03
2018-09-10T04:54:47.384Z,6.23
2018-09-10T04:59:51.019Z,6.17
2018-09-10T05:04:54.647Z,7.10
2018-09-10T05:09:58.348Z,6.00
2018-09-10T05:15:01.916Z,5.63
2018-09-10T05:20:10.224Z,5.63
2018-09-10T05:25:15.734Z,5.60
2018-09-10T05:30:19.732Z,6.07
2018-09-10T05:35:23.497Z,6.50
2018-09-10T05:40:28.103Z,6.00
2018-09-10T05:45:32.844Z,6.17
2018-09-10T05:50:36.556Z,6.10
2018-09-10T05:55:40.312Z,5.50
2018-09-10T06:00:44.125Z,6.80
2018-09-10T06:05:47.756Z,6.30
2018-09-10T06:10:52.100Z,6.30
2018-09-10T06:15:56.124Z,5.60
2018-09-10T06:21:00.151Z,6.37
2018-09-10T06:26:06.025Z,6.53
2018-09-10T06:31:09.740Z,6.83
2018-09-10T06:36:13.408Z,6.80
2018-09-10T06:41:17.199Z,6.37
2018-09-10T06:46:21.298Z,6.60
2018-09-10T06:51:24.971Z,6.80
2018-09-10T06:56:28.687Z,6.10
2018-09-10T07:01:32.409Z,6.40
2018-09-10T07:06:36.158Z,7.63
2018-09-10T07:11:40.662Z,7.60
2018-09-10T07:16:44.271Z,7.83
2018-09-10T07:21:47.871Z,7.30
2018-09-10T07:26:51.567Z,7.13
2018-09-10T07:31:55.269Z,7.70
2018-09-10T07:36:59.070Z,7.93
2018-09-10T07:42:02.724Z,8.93
2018-09-10T07:47:06.613Z,8.30
2018-09-10T07:52:10.316Z,8.40
2018-09-10T07:57:13.953Z,7.80
2018-09-10T08:02:17.715Z,7.40
2018-09-10T08:07:21.367Z,7.43
2018-09-10T08:12:25.203Z,7.00
2018-09-10T08:17:28.894Z,6.10
2018-09-10T08:22:32.613Z,6.00
2018-09-10T08:27:39.634Z,5.60
2018-09-10T08:32:43.764Z,4.43
2018-09-10T08:37:47.998Z,4.53
2018-09-10T08:42:51.929Z,5.33
2018-09-10T08:47:55.614Z,5.00
2018-09-10T08:52:59.266Z,5.40
2018-09-10T08:58:02.892Z,5.40
2018-09-10T09:03:06.872Z,5.57
2018-09-10T09:08:10.655Z,5.83
2018-09-10T09:13:14.393Z,6.30
2018-09-10T09:18:18.753Z,7.90
2018-09-10T09:23:22.678Z,6.97
2018-09-10T09:28:26.439Z,6.90
2018-09-10T09:33:30.309Z,6.60
2018-09-10T09:38:39.660Z,6.90
2018-09-10T09:43:48.700Z,6.43
2018-09-10T09:48:52.491Z,7.13
2018-09-10T09:53:56.166Z,6.67
2018-09-10T09:58:59.786Z,7.27
2018-09-10T10:04:11.112Z,6.23
2018-09-10T10:09:14.829Z,6.90
2018-09-10T10:14:18.537Z,6.37
2018-09-10T10:19:22.172Z,6.70
2018-09-10T10:24:26.084Z,6.57
2018-09-10T10:29:30.007Z,4.93
2018-09-10T10:34:33.324Z,5.33
2018-09-10T10:39:37.095Z,5.00
2018-09-10T10:44:41.015Z,4.93
2018-09-10T10:49:44.678Z,5.00
2018-09-10T10:54:48.857Z,4.40
2018-09-10T10:59:52.860Z,3.60
2018-09-10T11:04:57.476Z,3.80
2018-09-10T11:10:01.139Z,2.97
2018-09-10T11:15:05.059Z,3.30
2018-09-10T11:20:08.907Z,3.30
2018-09-10T11:25:13.248Z,3.30
2018-09-10T11:30:17.075Z,3.50
2018-09-10T11:35:20.806Z,3.03
2018-09-10T11:40:24.620Z,3.70
2018-09-10T11:45:28.526Z,2.60
2018-09-10T11:50:32.709Z,3.87
2018-09-10T11:55:36.708Z,3.77
2018-09-10T12:00:40.552Z,3.97
2018-09-10T12:05:44.264Z,3.90
2018-09-10T12:10:48.036Z,3.77
2018-09-10T12:15:52.211Z,4.30
2018-09-10T12:20:55.882Z,4.00
2018-09-10T12:25:59.997Z,4.70
2018-09-10T12:31:03.818Z,4.70
2018-09-10T12:36:07.834Z,3.70
2018-09-10T12:41:12.027Z,5.63
2018-09-10T12:46:15.899Z,4.40
2018-09-10T12:51:19.660Z,4.17
2018-09-10T12:56:23.347Z,3.70
2018-09-10T13:01:27.196Z,4.20
2018-09-10T13:06:31.290Z,3.57
2018-09-10T13:11:35.284Z,3.27
2018-09-10T13:16:39.492Z,3.60
2018-09-10T13:21:43.850Z,2.70
2018-09-10T13:26:48.490Z,4.20
2018-09-10T13:31:52.313Z,3.00
2018-09-10T13:36:56.982Z,3.03
2018-09-10T13:42:01.290Z,3.40
2018-09-10T13:47:06.185Z,3.47
2018-09-10T13:52:09.980Z,2.90
2018-09-10T13:57:14.209Z,3.50
2018-09-10T14:02:18.371Z,3.70
2018-09-10T14:07:28.434Z,3.77
2018-09-10T14:17:42.150Z,3.40
2018-09-10T14:22:46.150Z,3.10
2018-09-10T14:27:49.869Z,3.60
2018-09-10T14:32:53.908Z,3.77
2018-09-10T14:37:58.161Z,3.70
2018-09-10T14:43:02.536Z,3.70
2018-09-10T14:48:06.740Z,3.00
2018-09-10T14:53:10.636Z,3.03
2018-09-10T14:58:15.631Z,3.77
2018-09-10T15:03:20.803Z,3.33
2018-09-10T15:08:26.864Z,2.83
2018-09-10T15:13:30.608Z,3.00
2018-09-10T15:18:34.964Z,2.90
2018-09-10T15:23:38.688Z,3.27
2018-09-10T15:28:42.688Z,3.30
2018-09-10T15:33:46.497Z,3.33
2018-09-10T15:38:50.539Z,9.30
2018-09-10T15:43:58.112Z,3.10
2018-09-10T15:49:03.435Z,3.30
2018-09-10T15:54:07.701Z,3.53
2018-09-10T15:59:11.779Z,3.53
2018-09-10T16:04:16.213Z,3.17
2018-09-10T16:09:20.452Z,3.67
2018-09-10T16:14:24.408Z,3.80
2018-09-10T16:19:32.313Z,4.27
2018-09-10T16:24:36.241Z,3.50
2018-09-10T16:29:41.249Z,4.20
2018-09-10T16:34:45.738Z,4.23
2018-09-10T16:39:49.706Z,3.93
2018-09-10T16:44:53.906Z,4.30
2018-09-10T16:49:57.692Z,4.70
2018-09-10T16:55:01.673Z,4.27
2018-09-10T17:00:05.729Z,3.80
2018-09-10T17:05:09.733Z,4.00
2018-09-10T17:10:13.838Z,4.90
2018-09-10T17:15:17.618Z,4.10
2018-09-10T17:20:21.594Z,3.80
2018-09-10T17:25:36.263Z,4.50
2018-09-10T17:30:40.025Z,4.90
2018-09-10T17:35:44.388Z,3.97
2018-09-10T17:40:48.839Z,4.17
2018-09-10T17:45:53.045Z,4.27
2018-09-10T17:50:57.393Z,4.00
2018-09-10T17:56:01.695Z,4.13
2018-09-10T18:01:07.027Z,4.17
2018-09-10T18:06:11.202Z,3.90
2018-09-10T18:11:33.608Z,4.60
2018-09-10T18:16:38.851Z,5.70
2018-09-10T18:21:42.975Z,4.57
2018-09-10T18:26:49.222Z,4.27
2018-09-10T18:31:53.196Z,5.27
2018-09-10T18:36:57.435Z,4.93
2018-09-10T18:42:01.548Z,7.23
2018-09-10T18:47:05.581Z,8.00
2018-09-10T18:52:09.452Z,6.60
2018-09-10T18:57:13.972Z,5.10
2018-09-10T19:02:18.274Z,4.87
2018-09-10T19:07:22.437Z,4.70
2018-09-10T19:12:26.248Z,5.20
2018-09-10T19:18:10.964Z,4.43
2018-09-10T19:23:16.379Z,4.37
2018-09-10T19:28:20.245Z,4.30
2018-09-10T19:33:24.287Z,4.37
2018-09-10T19:38:28.090Z,4.23
2018-09-10T19:43:32.046Z,4.40
2018-09-10T19:48:36.702Z,4.27
2018-09-10T19:53:40.840Z,4.20
2018-09-10T19:58:44.993Z,6.43
2018-09-10T20:03:48.889Z,4.60
2018-09-10T20:08:53.971Z,4.17
2018-09-10T20:13:57.909Z,4.20
2018-09-10T20:19:02.123Z,4.83
2018-09-10T20:24:06.036Z,5.73
2018-09-10T20:29:09.891Z,5.43
2018-09-10T20:34:13.594Z,5.37
2018-09-10T20:39:17.322Z,4.97
2018-09-10T20:44:24.030Z,10.87
2018-09-10T20:49:28.459Z,4.70
2018-09-10T20:54:32.120Z,4.90
2018-09-10T20:59:36.293Z,5.70
2018-09-10T21:04:40.080Z,4.60
2018-09-10T21:09:44.556Z,5.30
2018-09-10T21:14:48.835Z,5.40
2018-09-10T21:19:52.651Z,4.37
2018-09-10T21:24:56.344Z,4.30
2018-09-10T21:30:00.721Z,4.30
2018-09-10T21:35:04.392Z,4.20
2018-09-10T21:40:08.065Z,4.80
2018-09-10T21:45:11.685Z,4.80
2018-09-10T21:50:15.836Z,4.83
2018-09-10T21:55:21.877Z,4.60
2018-09-10T22:00:26.981Z,5.23
2018-09-10T22:05:30.895Z,4.40
2018-09-10T22:10:35.082Z,4.97
2018-09-10T22:15:38.951Z,5.30
2018-09-10T22:20:43.057Z,5.10
2018-09-10T22:25:46.787Z,4.40
2018-09-10T22:30:50.842Z,4.73
2018-09-10T22:35:54.684Z,4.80
2018-09-10T22:40:58.373Z,4.43
2018-09-10T22:46:01.986Z,5.20
2018-09-10T22:51:06.285Z,4.77
2018-09-10T22:56:10.155Z,5.20
2018-09-10T23:01:14.015Z,4.87
2018-09-10T23:06:18.204Z,4.90
2018-09-10T23:11:21.916Z,4.97
2018-09-10T23:16:29.241Z,4.80
2018-09-10T23:21:33.232Z,5.60
2018-09-10T23:26:37.041Z,4.80
2018-09-10T23:31:40.767Z,4.83
2018-09-10T23:36:44.534Z,4.67
2018-09-10T23:41:48.830Z,5.77
2018-09-10T23:46:52.870Z,5.10
2018-09-10T23:51:56.988Z,4.80
2018-09-10T23:57:01.196Z,5.47
